EZY46HL EGKK-LEPA
Flight info
| Callsign | EZY46HL |
|---|---|
| Flight time | N/A |
| Altitude | 33000 |
| Route | SFD Y47 DRAKE L151 SITET UN859 SOPIL DCT BALAN DCT EVPOK DCT NARAK DCT GAI DCT LOMRA DCT ROCAN DCT IBRAP DCT LUKEV DCT LORES |
| Aircraft | A320/M-SDE2E3FGHIJ1RWXYZ/LB1 |
Departure
| Time | N/A |
|---|---|
| Airport | London Gatwick Airport (EGKK) |
Arrival
| Time | 2026-05-05 19:36 |
|---|---|
| Airport | Palma de Mallorca Airport (LEPA) |
| Time | Latitude | Longitude | Altitude | Speed | Heading |
|---|---|---|---|---|---|
| 2026-05-05 17:51 | 49.78133 | 0.12512 | 31603 ft | 428 kts | 165° |
| 2026-05-05 17:51 | 49.75251 | 0.13638 | 31981 ft | 427 kts | 165° |
| 2026-05-05 17:51 | 49.72374 | 0.14758 | 32349 ft | 425 kts | 165° |
| 2026-05-05 17:52 | 49.69510 | 0.15870 | 32717 ft | 424 kts | 165° |
| 2026-05-05 17:52 | 49.66651 | 0.16982 | 33079 ft | 423 kts | 165° |
| 2026-05-05 17:52 | 49.63796 | 0.18121 | 33436 ft | 423 kts | 164° |
| 2026-05-05 17:52 | 49.60961 | 0.19272 | 33795 ft | 422 kts | 164° |
| 2026-05-05 17:53 | 49.58125 | 0.20427 | 34112 ft | 421 kts | 164° |
| 2026-05-05 17:53 | 49.55293 | 0.21576 | 34373 ft | 421 kts | 164° |
| 2026-05-05 17:53 | 49.52457 | 0.22723 | 34599 ft | 422 kts | 164° |
| 2026-05-05 17:53 | 49.49613 | 0.23868 | 34803 ft | 423 kts | 164° |
| 2026-05-05 17:54 | 49.46766 | 0.25015 | 34883 ft | 420 kts | 164° |
| 2026-05-05 17:54 | 49.41157 | 0.27260 | 34892 ft | 416 kts | 164° |
| 2026-05-05 17:55 | 49.35545 | 0.29488 | 34893 ft | 417 kts | 164° |
| 2026-05-05 17:55 | 49.29923 | 0.31723 | 34893 ft | 417 kts | 164° |
| 2026-05-05 17:56 | 49.25268 | 0.33666 | 34891 ft | 417 kts | 163° |
| 2026-05-05 17:56 | 49.19679 | 0.36068 | 34883 ft | 417 kts | 163° |
| 2026-05-05 17:57 | 49.14082 | 0.38442 | 34881 ft | 417 kts | 163° |
| 2026-05-05 17:57 | 49.08485 | 0.40789 | 34885 ft | 417 kts | 163° |
| 2026-05-05 17:58 | 49.02872 | 0.43125 | 34877 ft | 418 kts | 163° |
| 2026-05-05 17:58 | 48.97260 | 0.45465 | 34874 ft | 418 kts | 163° |
| 2026-05-05 17:59 | 48.91649 | 0.47812 | 34877 ft | 418 kts | 163° |
| 2026-05-05 17:59 | 48.86047 | 0.50133 | 34884 ft | 418 kts | 163° |
| 2026-05-05 18:00 | 48.80473 | 0.52435 | 34889 ft | 418 kts | 163° |
| 2026-05-05 18:00 | 48.74865 | 0.54727 | 34892 ft | 417 kts | 163° |
| 2026-05-05 18:01 | 48.69245 | 0.56923 | 34880 ft | 418 kts | 164° |
| 2026-05-05 18:01 | 48.63614 | 0.59092 | 34882 ft | 417 kts | 164° |
| 2026-05-05 18:02 | 48.57991 | 0.61279 | 34868 ft | 417 kts | 163° |
| 2026-05-05 18:02 | 48.52366 | 0.63483 | 34870 ft | 418 kts | 163° |
| 2026-05-05 18:03 | 48.46743 | 0.65727 | 34865 ft | 418 kts | 163° |
| 2026-05-05 18:03 | 48.41120 | 0.68036 | 34864 ft | 419 kts | 163° |
| 2026-05-05 18:04 | 48.35488 | 0.70336 | 34870 ft | 420 kts | 163° |
| 2026-05-05 18:04 | 48.29847 | 0.72616 | 34870 ft | 420 kts | 163° |
| 2026-05-05 18:05 | 48.24192 | 0.74892 | 34872 ft | 421 kts | 163° |
| 2026-05-05 18:05 | 48.18564 | 0.77117 | 34874 ft | 421 kts | 164° |
| 2026-05-05 18:06 | 48.12894 | 0.79334 | 34869 ft | 422 kts | 164° |
| 2026-05-05 18:06 | 48.07251 | 0.81541 | 34862 ft | 422 kts | 164° |
| 2026-05-05 18:07 | 48.01564 | 0.83770 | 34877 ft | 422 kts | 164° |
| 2026-05-05 18:07 | 47.95880 | 0.85991 | 34874 ft | 422 kts | 164° |
| 2026-05-05 18:08 | 47.90195 | 0.88212 | 34869 ft | 423 kts | 164° |
| 2026-05-05 18:08 | 47.84508 | 0.90421 | 34856 ft | 423 kts | 165° |
| 2026-05-05 18:09 | 47.78808 | 0.92630 | 34854 ft | 423 kts | 165° |
| 2026-05-05 18:09 | 47.73106 | 0.94837 | 34849 ft | 424 kts | 165° |
| 2026-05-05 18:10 | 47.67392 | 0.97047 | 34848 ft | 425 kts | 165° |
| 2026-05-05 18:10 | 47.61668 | 0.99254 | 34854 ft | 425 kts | 165° |
| 2026-05-05 18:11 | 47.55949 | 1.01442 | 34858 ft | 424 kts | 165° |
| 2026-05-05 18:11 | 47.50328 | 1.03590 | 34855 ft | 424 kts | 165° |
| 2026-05-05 18:12 | 47.44560 | 1.05777 | 34866 ft | 423 kts | 168° |
| 2026-05-05 18:12 | 47.38699 | 1.06365 | 34861 ft | 424 kts | 180° |
| 2026-05-05 18:13 | 47.32807 | 1.06212 | 34864 ft | 423 kts | 180° |
| 2026-05-05 18:13 | 47.26925 | 1.06069 | 34862 ft | 423 kts | 181° |
| 2026-05-05 18:14 | 47.21047 | 1.05928 | 34868 ft | 422 kts | 180° |
| 2026-05-05 18:14 | 47.15211 | 1.05793 | 34867 ft | 422 kts | 180° |
| 2026-05-05 18:15 | 47.09300 | 1.05659 | 34865 ft | 422 kts | 181° |
| 2026-05-05 18:15 | 47.03434 | 1.05523 | 34862 ft | 422 kts | 181° |
| 2026-05-05 18:16 | 46.97601 | 1.05333 | 34868 ft | 422 kts | 181° |
| 2026-05-05 18:16 | 46.91732 | 1.05058 | 34869 ft | 422 kts | 182° |
| 2026-05-05 18:17 | 46.85869 | 1.04784 | 34867 ft | 422 kts | 181° |
| 2026-05-05 18:17 | 46.80002 | 1.04527 | 34868 ft | 422 kts | 181° |
| 2026-05-05 18:18 | 46.74135 | 1.04284 | 34868 ft | 422 kts | 181° |
| 2026-05-05 18:18 | 46.68274 | 1.04036 | 34872 ft | 421 kts | 182° |
| 2026-05-05 18:19 | 46.62415 | 1.03796 | 34868 ft | 421 kts | 182° |
| 2026-05-05 18:19 | 46.56555 | 1.03558 | 34884 ft | 421 kts | 182° |
| 2026-05-05 18:20 | 46.50710 | 1.03713 | 34880 ft | 421 kts | 171° |
| 2026-05-05 18:20 | 46.44989 | 1.05566 | 34882 ft | 421 kts | 167° |
| 2026-05-05 18:21 | 46.39280 | 1.07472 | 34885 ft | 421 kts | 168° |
| 2026-05-05 18:21 | 46.33569 | 1.09367 | 34887 ft | 421 kts | 168° |
| 2026-05-05 18:22 | 46.27856 | 1.11264 | 34902 ft | 421 kts | 168° |
| 2026-05-05 18:22 | 46.22148 | 1.13167 | 34908 ft | 420 kts | 168° |
| 2026-05-05 18:23 | 46.16450 | 1.15065 | 34913 ft | 420 kts | 168° |
| 2026-05-05 18:23 | 46.10760 | 1.16945 | 34921 ft | 420 kts | 168° |
| 2026-05-05 18:24 | 46.05068 | 1.18816 | 34924 ft | 419 kts | 168° |
| 2026-05-05 18:24 | 45.99373 | 1.20682 | 34924 ft | 419 kts | 168° |
| 2026-05-05 18:25 | 45.93685 | 1.22557 | 34930 ft | 420 kts | 168° |
| 2026-05-05 18:25 | 45.88000 | 1.24431 | 34925 ft | 420 kts | 168° |
| 2026-05-05 18:26 | 45.82340 | 1.26286 | 34921 ft | 420 kts | 168° |
| 2026-05-05 18:26 | 45.76640 | 1.28135 | 34921 ft | 420 kts | 168° |
| 2026-05-05 18:27 | 45.70940 | 1.30001 | 34922 ft | 420 kts | 168° |
| 2026-05-05 18:27 | 45.65232 | 1.31860 | 34918 ft | 421 kts | 168° |
| 2026-05-05 18:28 | 45.56665 | 1.34633 | 34920 ft | 421 kts | 168° |
| 2026-05-05 18:28 | 45.50954 | 1.36484 | 34933 ft | 421 kts | 169° |
| 2026-05-05 18:29 | 45.45236 | 1.38331 | 34930 ft | 421 kts | 169° |
| 2026-05-05 18:29 | 45.39517 | 1.40169 | 34926 ft | 421 kts | 169° |
| 2026-05-05 18:30 | 45.33802 | 1.42000 | 34932 ft | 421 kts | 169° |
| 2026-05-05 18:30 | 45.28090 | 1.43828 | 34931 ft | 421 kts | 169° |
| 2026-05-05 18:31 | 45.22381 | 1.45660 | 34929 ft | 421 kts | 169° |
| 2026-05-05 18:31 | 45.16712 | 1.47483 | 34928 ft | 420 kts | 169° |
| 2026-05-05 18:32 | 45.11008 | 1.49305 | 34928 ft | 420 kts | 169° |
| 2026-05-05 18:32 | 45.05310 | 1.51111 | 34929 ft | 420 kts | 169° |
| 2026-05-05 18:33 | 44.99606 | 1.52912 | 34930 ft | 420 kts | 169° |
| 2026-05-05 18:33 | 44.93912 | 1.54724 | 34926 ft | 420 kts | 169° |
| 2026-05-05 18:34 | 44.88211 | 1.56535 | 34925 ft | 420 kts | 170° |
| 2026-05-05 18:34 | 44.82516 | 1.58334 | 34925 ft | 420 kts | 170° |
| 2026-05-05 18:35 | 44.76814 | 1.60125 | 34930 ft | 420 kts | 170° |
| 2026-05-05 18:35 | 44.71119 | 1.61909 | 34932 ft | 419 kts | 170° |
| 2026-05-05 18:36 | 44.65427 | 1.63699 | 34935 ft | 419 kts | 170° |
| 2026-05-05 18:36 | 44.59772 | 1.65474 | 34941 ft | 419 kts | 170° |
| 2026-05-05 18:37 | 44.54081 | 1.67252 | 34942 ft | 419 kts | 171° |
| 2026-05-05 18:37 | 44.48360 | 1.69035 | 34939 ft | 418 kts | 171° |
| 2026-05-05 18:38 | 44.42724 | 1.70795 | 34946 ft | 418 kts | 171° |
| 2026-05-05 18:38 | 44.37043 | 1.72557 | 34945 ft | 418 kts | 171° |
| 2026-05-05 18:39 | 44.31373 | 1.74303 | 34950 ft | 417 kts | 171° |
| 2026-05-05 18:39 | 44.25692 | 1.75895 | 34949 ft | 416 kts | 174° |
| 2026-05-05 18:40 | 44.19978 | 1.77118 | 34949 ft | 415 kts | 175° |
| 2026-05-05 18:40 | 44.14267 | 1.78280 | 34952 ft | 415 kts | 175° |
| 2026-05-05 18:41 | 44.08564 | 1.79507 | 34959 ft | 415 kts | 175° |
| 2026-05-05 18:41 | 44.02870 | 1.80769 | 34955 ft | 414 kts | 175° |
| 2026-05-05 18:42 | 43.97184 | 1.82027 | 34961 ft | 414 kts | 175° |
| 2026-05-05 18:42 | 43.91482 | 1.83018 | 34961 ft | 411 kts | 179° |
| 2026-05-05 18:43 | 43.85778 | 1.83503 | 34965 ft | 410 kts | 181° |
| 2026-05-05 18:43 | 43.80120 | 1.83912 | 34969 ft | 410 kts | 180° |
| 2026-05-05 18:44 | 43.74386 | 1.84424 | 34969 ft | 410 kts | 180° |
| 2026-05-05 18:44 | 43.68694 | 1.84996 | 34978 ft | 410 kts | 180° |
| 2026-05-05 18:45 | 43.63039 | 1.85561 | 34981 ft | 410 kts | 180° |
| 2026-05-05 18:45 | 43.58272 | 1.86024 | 34980 ft | 410 kts | 180° |
| 2026-05-05 18:46 | 43.52585 | 1.86569 | 34979 ft | 410 kts | 180° |
| 2026-05-05 18:46 | 43.46891 | 1.87116 | 34975 ft | 410 kts | 180° |
| 2026-05-05 18:47 | 43.41204 | 1.87663 | 34972 ft | 410 kts | 180° |
| 2026-05-05 18:47 | 43.35509 | 1.88204 | 34966 ft | 410 kts | 180° |
| 2026-05-05 18:48 | 43.29817 | 1.88743 | 34963 ft | 410 kts | 180° |
| 2026-05-05 18:48 | 43.24116 | 1.89283 | 34963 ft | 411 kts | 180° |
| 2026-05-05 18:49 | 43.18417 | 1.89834 | 34966 ft | 411 kts | 180° |
| 2026-05-05 18:49 | 43.12712 | 1.90380 | 34973 ft | 411 kts | 181° |
| 2026-05-05 18:50 | 43.07004 | 1.90922 | 34978 ft | 411 kts | 181° |
| 2026-05-05 18:50 | 43.01306 | 1.91463 | 34975 ft | 411 kts | 181° |
| 2026-05-05 18:51 | 42.95605 | 1.92000 | 34978 ft | 410 kts | 181° |
| 2026-05-05 18:51 | 42.89917 | 1.92534 | 34977 ft | 409 kts | 181° |
| 2026-05-05 18:52 | 42.84235 | 1.93077 | 34973 ft | 409 kts | 181° |
| 2026-05-05 18:52 | 42.78590 | 1.93610 | 34968 ft | 408 kts | 181° |
| 2026-05-05 18:53 | 42.72932 | 1.94141 | 34962 ft | 408 kts | 181° |
| 2026-05-05 18:53 | 42.67274 | 1.94780 | 34969 ft | 412 kts | 175° |
| 2026-05-05 18:54 | 42.61680 | 1.96702 | 34941 ft | 415 kts | 171° |
| 2026-05-05 18:54 | 42.56102 | 1.98719 | 34947 ft | 414 kts | 171° |
| 2026-05-05 18:55 | 42.50537 | 2.00725 | 34931 ft | 414 kts | 171° |
| 2026-05-05 18:55 | 42.44963 | 2.02714 | 34930 ft | 413 kts | 172° |
| 2026-05-05 18:56 | 42.39401 | 2.04696 | 34925 ft | 413 kts | 172° |
| 2026-05-05 18:56 | 42.33842 | 2.06680 | 34905 ft | 413 kts | 172° |
| 2026-05-05 18:57 | 42.28288 | 2.08661 | 34908 ft | 413 kts | 172° |
| 2026-05-05 18:57 | 42.22739 | 2.10629 | 34908 ft | 412 kts | 172° |
| 2026-05-05 18:58 | 42.17197 | 2.12595 | 34904 ft | 412 kts | 172° |
| 2026-05-05 18:58 | 42.11650 | 2.14556 | 34904 ft | 412 kts | 172° |
| 2026-05-05 18:59 | 42.06105 | 2.16513 | 34905 ft | 412 kts | 172° |
| 2026-05-05 18:59 | 42.00570 | 2.18453 | 34905 ft | 411 kts | 173° |
| 2026-05-05 19:00 | 41.95030 | 2.20396 | 34913 ft | 411 kts | 173° |
| 2026-05-05 19:00 | 41.89501 | 2.22347 | 34916 ft | 410 kts | 173° |
| 2026-05-05 19:01 | 41.83986 | 2.24294 | 34909 ft | 409 kts | 173° |
| 2026-05-05 19:01 | 41.78487 | 2.26218 | 34904 ft | 408 kts | 174° |
| 2026-05-05 19:02 | 41.72990 | 2.28127 | 34908 ft | 408 kts | 174° |
| 2026-05-05 19:02 | 41.67543 | 2.30031 | 34908 ft | 407 kts | 174° |
| 2026-05-05 19:03 | 41.62079 | 2.31940 | 34905 ft | 405 kts | 174° |
| 2026-05-05 19:03 | 41.56620 | 2.33835 | 34905 ft | 405 kts | 174° |
| 2026-05-05 19:04 | 41.51174 | 2.35720 | 34904 ft | 404 kts | 175° |
| 2026-05-05 19:04 | 41.45723 | 2.37601 | 34898 ft | 405 kts | 175° |
| 2026-05-05 19:05 | 41.40277 | 2.39492 | 34894 ft | 404 kts | 175° |
| 2026-05-05 19:05 | 41.34837 | 2.41381 | 34892 ft | 404 kts | 175° |
| 2026-05-05 19:06 | 41.32113 | 2.42318 | 34779 ft | 403 kts | 175° |
| 2026-05-05 19:06 | 41.29416 | 2.43249 | 34536 ft | 398 kts | 175° |
| 2026-05-05 19:06 | 41.26746 | 2.44169 | 34291 ft | 395 kts | 176° |
| 2026-05-05 19:06 | 41.24094 | 2.45085 | 34055 ft | 392 kts | 176° |
| 2026-05-05 19:07 | 41.21473 | 2.45990 | 33800 ft | 389 kts | 176° |
| 2026-05-05 19:07 | 41.18861 | 2.46885 | 33524 ft | 386 kts | 176° |
| 2026-05-05 19:07 | 41.16280 | 2.47770 | 33126 ft | 380 kts | 177° |
| 2026-05-05 19:07 | 41.13734 | 2.48640 | 32671 ft | 376 kts | 177° |
| 2026-05-05 19:08 | 41.11210 | 2.49505 | 32219 ft | 372 kts | 177° |
| 2026-05-05 19:08 | 41.08715 | 2.50363 | 31776 ft | 368 kts | 177° |
| 2026-05-05 19:08 | 41.06248 | 2.51208 | 31343 ft | 365 kts | 177° |
| 2026-05-05 19:08 | 41.03802 | 2.52046 | 30908 ft | 361 kts | 177° |
| 2026-05-05 19:09 | 41.01377 | 2.52877 | 30493 ft | 358 kts | 177° |
| 2026-05-05 19:09 | 40.98979 | 2.53696 | 30082 ft | 354 kts | 177° |
| 2026-05-05 19:09 | 40.96606 | 2.54503 | 29638 ft | 350 kts | 177° |
| 2026-05-05 19:09 | 40.94261 | 2.55301 | 29242 ft | 345 kts | 177° |
| 2026-05-05 19:10 | 40.91951 | 2.56089 | 28861 ft | 340 kts | 177° |
| 2026-05-05 19:10 | 40.89678 | 2.56864 | 28491 ft | 335 kts | 177° |
| 2026-05-05 19:10 | 40.87438 | 2.57630 | 28140 ft | 330 kts | 177° |
| 2026-05-05 19:10 | 40.85230 | 2.58381 | 27755 ft | 326 kts | 177° |
| 2026-05-05 19:11 | 40.83045 | 2.59120 | 27399 ft | 323 kts | 177° |
| 2026-05-05 19:11 | 40.80879 | 2.59849 | 27042 ft | 321 kts | 177° |
| 2026-05-05 19:11 | 40.78723 | 2.60573 | 26663 ft | 319 kts | 178° |
| 2026-05-05 19:11 | 40.76579 | 2.61294 | 26303 ft | 317 kts | 177° |
| 2026-05-05 19:12 | 40.74446 | 2.62015 | 25921 ft | 316 kts | 177° |
| 2026-05-05 19:12 | 40.72324 | 2.62735 | 25540 ft | 314 kts | 177° |
| 2026-05-05 19:12 | 40.70215 | 2.63450 | 25160 ft | 312 kts | 177° |
| 2026-05-05 19:12 | 40.68117 | 2.64158 | 24767 ft | 311 kts | 177° |
| 2026-05-05 19:13 | 40.66027 | 2.64863 | 24373 ft | 309 kts | 177° |
| 2026-05-05 19:13 | 40.63950 | 2.65564 | 23985 ft | 308 kts | 178° |
| 2026-05-05 19:13 | 40.61873 | 2.66264 | 23594 ft | 307 kts | 178° |
| 2026-05-05 19:13 | 40.59805 | 2.66958 | 23158 ft | 306 kts | 177° |
| 2026-05-05 19:14 | 40.57751 | 2.67649 | 22755 ft | 304 kts | 177° |
| 2026-05-05 19:14 | 40.55699 | 2.68341 | 22363 ft | 303 kts | 177° |
| 2026-05-05 19:14 | 40.53663 | 2.69029 | 21982 ft | 302 kts | 176° |
| 2026-05-05 19:14 | 40.51633 | 2.69714 | 21576 ft | 301 kts | 176° |
| 2026-05-05 19:15 | 40.49623 | 2.70581 | 21179 ft | 309 kts | 167° |
| 2026-05-05 19:15 | 40.47692 | 2.71913 | 20763 ft | 315 kts | 162° |
| 2026-05-05 19:15 | 40.45774 | 2.73310 | 20362 ft | 315 kts | 161° |
| 2026-05-05 19:15 | 40.43880 | 2.74686 | 19952 ft | 316 kts | 161° |
| 2026-05-05 19:16 | 40.41932 | 2.76102 | 19538 ft | 317 kts | 161° |
| 2026-05-05 19:16 | 40.39996 | 2.77507 | 19125 ft | 317 kts | 160° |
| 2026-05-05 19:16 | 40.38067 | 2.78904 | 18717 ft | 318 kts | 160° |
| 2026-05-05 19:16 | 40.36121 | 2.80312 | 18303 ft | 319 kts | 160° |
| 2026-05-05 19:17 | 40.34176 | 2.81718 | 17855 ft | 320 kts | 160° |
| 2026-05-05 19:17 | 40.32227 | 2.83125 | 17440 ft | 319 kts | 159° |
| 2026-05-05 19:17 | 40.30286 | 2.84526 | 17025 ft | 318 kts | 159° |
| 2026-05-05 19:17 | 40.28345 | 2.85928 | 16633 ft | 318 kts | 159° |
| 2026-05-05 19:18 | 40.26416 | 2.87321 | 16244 ft | 317 kts | 159° |
| 2026-05-05 19:18 | 40.24510 | 2.88697 | 15866 ft | 316 kts | 159° |
| 2026-05-05 19:18 | 40.22563 | 2.90103 | 15487 ft | 315 kts | 159° |
| 2026-05-05 19:18 | 40.20644 | 2.91486 | 15161 ft | 313 kts | 158° |
| 2026-05-05 19:19 | 40.18763 | 2.92839 | 14781 ft | 313 kts | 158° |
| 2026-05-05 19:19 | 40.16868 | 2.94201 | 14441 ft | 311 kts | 158° |
| 2026-05-05 19:19 | 40.14952 | 2.95573 | 14136 ft | 308 kts | 158° |
| 2026-05-05 19:19 | 40.13066 | 2.96921 | 13791 ft | 308 kts | 158° |
| 2026-05-05 19:20 | 40.11225 | 2.98243 | 13490 ft | 305 kts | 158° |
| 2026-05-05 19:20 | 40.09346 | 2.99591 | 13068 ft | 305 kts | 158° |
| 2026-05-05 19:20 | 40.07500 | 3.00914 | 12571 ft | 301 kts | 158° |
| 2026-05-05 19:20 | 40.05686 | 3.02215 | 12110 ft | 292 kts | 157° |
| 2026-05-05 19:21 | 40.03902 | 3.03494 | 11737 ft | 292 kts | 157° |
| 2026-05-05 19:21 | 40.02142 | 3.04753 | 11369 ft | 292 kts | 157° |
| 2026-05-05 19:21 | 40.00356 | 3.06028 | 10991 ft | 293 kts | 157° |
| 2026-05-05 19:21 | 39.98569 | 3.07304 | 10612 ft | 294 kts | 155° |
| 2026-05-05 19:22 | 39.96787 | 3.08726 | 10213 ft | 298 kts | 152° |
| 2026-05-05 19:22 | 39.95060 | 3.10153 | 9846 ft | 298 kts | 152° |
| 2026-05-05 19:22 | 39.93305 | 3.11591 | 9426 ft | 298 kts | 152° |
| 2026-05-05 19:22 | 39.91553 | 3.13015 | 9001 ft | 296 kts | 152° |
| 2026-05-05 19:23 | 39.89804 | 3.14427 | 8587 ft | 296 kts | 152° |
| 2026-05-05 19:23 | 39.88024 | 3.15854 | 8170 ft | 295 kts | 152° |
| 2026-05-05 19:23 | 39.86301 | 3.17228 | 7766 ft | 295 kts | 152° |
| 2026-05-05 19:23 | 39.84550 | 3.18615 | 7375 ft | 294 kts | 152° |
| 2026-05-05 19:24 | 39.82802 | 3.19993 | 6974 ft | 292 kts | 152° |
| 2026-05-05 19:24 | 39.81107 | 3.21326 | 6692 ft | 276 kts | 152° |
| 2026-05-05 19:24 | 39.79518 | 3.22578 | 6503 ft | 258 kts | 152° |
| 2026-05-05 19:24 | 39.78035 | 3.23756 | 6342 ft | 243 kts | 152° |
| 2026-05-05 19:25 | 39.76606 | 3.24893 | 6163 ft | 241 kts | 152° |
| 2026-05-05 19:25 | 39.75178 | 3.26029 | 6038 ft | 240 kts | 152° |
| 2026-05-05 19:25 | 39.73739 | 3.27134 | 5831 ft | 239 kts | 160° |
| 2026-05-05 19:25 | 39.72162 | 3.27492 | 5524 ft | 227 kts | 193° |
| 2026-05-05 19:26 | 39.70775 | 3.26701 | 5221 ft | 216 kts | 227° |
| 2026-05-05 19:26 | 39.70014 | 3.25068 | 4921 ft | 210 kts | 256° |
| 2026-05-05 19:26 | 39.69708 | 3.23221 | 4622 ft | 209 kts | 261° |
| 2026-05-05 19:26 | 39.69478 | 3.21379 | 4321 ft | 209 kts | 262° |
| 2026-05-05 19:27 | 39.69212 | 3.19528 | 4004 ft | 209 kts | 259° |
| 2026-05-05 19:27 | 39.68882 | 3.17692 | 3719 ft | 209 kts | 257° |
| 2026-05-05 19:27 | 39.68537 | 3.15866 | 3418 ft | 209 kts | 257° |
| 2026-05-05 19:27 | 39.68226 | 3.14226 | 3153 ft | 208 kts | 257° |
| 2026-05-05 19:28 | 39.67882 | 3.12411 | 3009 ft | 208 kts | 257° |
| 2026-05-05 19:28 | 39.67552 | 3.10649 | 2999 ft | 195 kts | 257° |
| 2026-05-05 19:28 | 39.67242 | 3.08995 | 2998 ft | 184 kts | 257° |
| 2026-05-05 19:28 | 39.66954 | 3.07459 | 3020 ft | 166 kts | 257° |
| 2026-05-05 19:29 | 39.66698 | 3.06083 | 3034 ft | 147 kts | 258° |
| 2026-05-05 19:29 | 39.66581 | 3.05223 | 3021 ft | 143 kts | 266° |
| 2026-05-05 19:29 | 39.66573 | 3.03934 | 3008 ft | 143 kts | 271° |
| 2026-05-05 19:29 | 39.66621 | 3.02228 | 3004 ft | 143 kts | 272° |
| 2026-05-05 19:30 | 39.66649 | 3.01374 | 3009 ft | 143 kts | 272° |
| 2026-05-05 19:30 | 39.66660 | 3.00086 | 3007 ft | 143 kts | 263° |
| 2026-05-05 19:30 | 39.66241 | 2.98920 | 3001 ft | 143 kts | 241° |
| 2026-05-05 19:30 | 39.65725 | 2.97820 | 3009 ft | 143 kts | 241° |
| 2026-05-05 19:31 | 39.65211 | 2.96719 | 3001 ft | 143 kts | 241° |
| 2026-05-05 19:31 | 39.64694 | 2.95615 | 3006 ft | 142 kts | 243° |
| 2026-05-05 19:31 | 39.64178 | 2.94516 | 3010 ft | 142 kts | 242° |
| 2026-05-05 19:31 | 39.63662 | 2.93416 | 2952 ft | 144 kts | 242° |
| 2026-05-05 19:32 | 39.63145 | 2.92316 | 2826 ft | 142 kts | 241° |
| 2026-05-05 19:32 | 39.62623 | 2.91203 | 2668 ft | 145 kts | 242° |
| 2026-05-05 19:32 | 39.62099 | 2.90090 | 2484 ft | 144 kts | 241° |
| 2026-05-05 19:32 | 39.61577 | 2.88980 | 2298 ft | 144 kts | 240° |
| 2026-05-05 19:33 | 39.61056 | 2.87872 | 2105 ft | 144 kts | 240° |
| 2026-05-05 19:33 | 39.60537 | 2.86769 | 1908 ft | 143 kts | 239° |
| 2026-05-05 19:33 | 39.60019 | 2.85670 | 1729 ft | 143 kts | 239° |
| 2026-05-05 19:33 | 39.59498 | 2.84562 | 1539 ft | 142 kts | 240° |
| 2026-05-05 19:34 | 39.58979 | 2.83461 | 1341 ft | 144 kts | 239° |
| 2026-05-05 19:34 | 39.58459 | 2.82365 | 1166 ft | 143 kts | 238° |
| 2026-05-05 19:34 | 39.57937 | 2.81272 | 994 ft | 143 kts | 239° |
| 2026-05-05 19:35 | 39.56907 | 2.79084 | 596 ft | 141 kts | 238° |
| 2026-05-05 19:35 | 39.56397 | 2.77993 | 406 ft | 140 kts | 239° |
| 2026-05-05 19:35 | 39.55894 | 2.76900 | 210 ft | 141 kts | 239° |
| 2026-05-05 19:35 | 39.55380 | 2.75823 | 54 ft | 140 kts | 238° |
| 2026-05-05 19:36 | 39.54911 | 2.74827 | 38 ft | 110 kts | 237° |
| 2026-05-05 19:36 | 39.54566 | 2.74103 | 38 ft | 71 kts | 238° |
| 2026-05-05 19:36 | 39.54389 | 2.73726 | 38 ft | 37 kts | 240° |
| 2026-05-05 19:36 | 39.54273 | 2.73458 | 38 ft | 26 kts | 266° |
| 2026-05-05 19:37 | 39.54272 | 2.73289 | 38 ft | 10 kts | 266° |
| 2026-05-05 19:37 | 39.54269 | 2.73243 | 38 ft | 3 kts | 265° |
| 2026-05-05 19:37 | 39.54271 | 2.73220 | 38 ft | 2 kts | 283° |
| 2026-05-05 19:37 | 39.54276 | 2.73201 | 37 ft | 5 kts | 298° |
| 2026-05-05 19:38 | 39.54287 | 2.73177 | 38 ft | 0 kts | 304° |